Time,TemperatureF,DewpointF,PressureIn,WindDirection,WindDirectionDegrees,WindSpeedMPH,WindSpeedGustMPH,Humidity,HourlyPrecipIn,Conditions,Clouds,dailyrainin,SoftwareType,DateUTC
2013-01-01 00:00:00,29.8,29.3,29.91,SW,221,8.1,8.1,98,0.00,OVC,,0.00,WeatherDisplay:10.37,2013-01-01 05:00:00,
2013-01-01 00:01:00,29.8,29.3,29.91,West,277,11.4,11.4,98,0.00,OVC,,0.00,WeatherDisplay:10.37,2013-01-01 05:01:00,
2013-01-01 00:06:00,29.8,29.3,29.91,South,182,8.0,8.0,98,0.00,OVC,,0.00,WeatherDisplay:10.37,2013-01-01 05:06:00,
2013-01-01 00:11:00,29.8,29.3,29.91,WSW,238,15.0,15.0,98,0.00,OVC,,0.00,WeatherDisplay:10.37,2013-01-01 05:11:00,
2013-01-01 00:16:00,30.0,29.5,29.91,WSW,254,18.4,18.4,98,0.00,OVC,,0.00,WeatherDisplay:10.37,2013-01-01 05:16:00,
2013-01-01 00:21:00,30.0,29.5,29.91,SSW,210,4.0,4.0,98,0.00,OVC,,0.00,WeatherDisplay:10.37,2013-01-01 05:21:00,
2013-01-01 00:26:00,29.8,29.3,29.91,WSW,239,12.7,12.7,98,0.00,OVC,,0.00,WeatherDisplay:10.37,2013-01-01 05:26:00,
2013-01-01 00:31:00,29.8,29.3,29.88,SW,235,15.0,15.0,98,0.00,OVC,,0.00,WeatherDisplay:10.37,2013-01-01 05:31:00,
2013-01-01 00:36:00,29.8,29.3,29.88,ENE,76,5.8,5.8,98,0.00,OVC,,0.00,WeatherDisplay:10.37,2013-01-01 05:36:00,
2013-01-01 00:41:00,29.8,29.3,29.88,SW,232,8.0,8.0,98,0.00,OVC,,0.00,WeatherDisplay:10.37,2013-01-01 05:41:00,
2013-01-01 00:46:00,29.8,29.3,29.88,WNW,287,4.6,4.6,98,0.00,OVC,,0.00,WeatherDisplay:10.37,2013-01-01 05:46:00,
2013-01-01 00:51:00,29.8,29.3,29.88,WSW,245,8.1,8.1,98,0.00,OVC,,0.00,WeatherDisplay:10.37,2013-01-01 05:51:00,
2013-01-01 00:56:00,29.8,29.3,29.88,South,183,8.3,8.3,98,0.00,OVC,,0.00,WeatherDisplay:10.37,2013-01-01 05:56:00,
2013-01-01 01:01:00,29.8,29.3,29.88,SW,219,8.1,8.1,98,0.00,OVC,,0.00,WeatherDisplay:10.37,2013-01-01 06:01:00,
2013-01-01 01:06:00,29.8,29.3,29.88,West,259,10.4,10.4,98,0.00,OVC,,0.00,WeatherDisplay:10.37,2013-01-01 06:06:00,
2013-01-01 01:11:00,29.8,29.3,29.88,West,261,8.1,8.1,98,0.00,OVC,,0.00,WeatherDisplay:10.37,2013-01-01 06:11:00,
2013-01-01 01:16:00,29.8,29.3,29.91,SW,214,11.5,11.5,98,0.00,OVC,,0.00,WeatherDisplay:10.37,2013-01-01 06:16:00,
2013-01-01 01:21:00,29.8,29.3,29.91,West,259,5.8,5.8,98,0.00,OVC,,0.00,WeatherDisplay:10.37,2013-01-01 06:21:00,
2013-01-01 01:26:00,29.8,29.3,29.91,WSW,237,8.1,8.1,98,0.00,OVC,,0.00,WeatherDisplay:10.37,2013-01-01 06:26:00,
2013-01-01 01:31:00,29.8,29.3,29.88,WNW,286,10.4,10.4,98,0.00,OVC,,0.00,WeatherDisplay:10.37,2013-01-01 06:31:00,
2013-01-01 01:36:00,29.8,29.3,29.88,West,269,7.2,7.2,98,0.00,OVC,,0.00,WeatherDisplay:10.37,2013-01-01 06:36:00,
2013-01-01 01:41:00,29.8,29.3,29.88,SSW,209,8.1,8.1,98,0.00,OVC,,0.00,WeatherDisplay:10.37,2013-01-01 06:41:00,
2013-01-01 01:46:00,29.8,29.3,29.88,West,260,8.1,8.1,98,0.00,OVC,,0.00,WeatherDisplay:10.37,2013-01-01 06:46:00,
2013-01-01 01:51:00,29.8,29.3,29.88,West,263,8.1,8.1,98,0.00,OVC,,0.00,WeatherDisplay:10.37,2013-01-01 06:51:00,
2013-01-01 01:56:00,29.8,29.3,29.88,SW,228,5.8,5.8,98,0.00,OVC,,0.00,WeatherDisplay:10.37,2013-01-01 06:56:00,
2013-01-01 02:01:00,29.8,29.3,29.91,WSW,240,5.8,5.8,98,0.00,OVC,,0.00,WeatherDisplay:10.37,2013-01-01 07:01:00,
2013-01-01 02:06:00,29.8,29.3,29.91,West,273,9.2,9.2,98,0.00,OVC,,0.00,WeatherDisplay:10.37,2013-01-01 07:06:00,
2013-01-01 02:12:00,29.8,29.3,29.91,SW,221,9.2,9.2,98,0.00,OVC,,0.00,WeatherDisplay:10.37,2013-01-01 07:12:00,
2013-01-01 02:17:00,30.0,29.5,29.91,WNW,288,5.8,5.8,98,0.00,OVC,,0.00,WeatherDisplay:10.37,2013-01-01 07:17:00,
2013-01-01 02:22:00,29.8,29.3,29.91,WNW,295,11.5,11.5,98,0.00,OVC,,0.00,WeatherDisplay:10.37,2013-01-01 07:22:00,
2013-01-01 02:27:00,29.8,29.3,29.91,West,264,12.7,12.7,98,0.00,OVC,,0.00,WeatherDisplay:10.37,2013-01-01 07:27:00,
2013-01-01 02:32:00,29.8,29.3,29.88,WNW,300,10.4,10.4,98,0.00,OVC,,0.00,WeatherDisplay:10.37,2013-01-01 07:32:00,
2013-01-01 02:37:00,29.8,29.3,29.88,North,353,8.1,8.1,98,0.00,-SN,,0.00,WeatherDisplay:10.37,2013-01-01 07:37:00,
2013-01-01 02:42:00,29.8,29.3,29.88,West,264,5.8,5.8,98,0.00,-SN,,0.00,WeatherDisplay:10.37,2013-01-01 07:42:00,
2013-01-01 02:47:00,29.8,29.3,29.88,West,263,5.8,5.8,98,0.00,-SN,,0.00,WeatherDisplay:10.37,2013-01-01 07:47:00,
2013-01-01 02:52:00,29.8,29.3,29.88,SW,236,5.8,5.8,98,0.00,-SN,,0.00,WeatherDisplay:10.37,2013-01-01 07:52:00,
2013-01-01 02:57:00,29.8,29.3,29.88,WSW,248,5.8,5.8,98,0.00,-SN,,0.00,WeatherDisplay:10.37,2013-01-01 07:57:00,
2013-01-01 03:02:00,29.8,29.3,29.88,SW,232,5.8,5.8,98,0.00,-SN,,0.00,WeatherDisplay:10.37,2013-01-01 08:02:00,
2013-01-01 03:07:00,29.8,29.3,29.88,West,276,9.2,9.2,98,0.00,-SN,,0.00,WeatherDisplay:10.37,2013-01-01 08:07:00,
2013-01-01 03:12:00,29.8,29.3,29.88,West,272,5.8,0.0,98,0.00,-SN,,0.00,WeatherDisplay:10.37,2013-01-01 08:12:00,
2013-01-01 03:17:00,30.0,29.5,29.88,West,260,9.2,9.2,98,0.00,-SN,,0.00,WeatherDisplay:10.37,2013-01-01 08:17:00,
2013-01-01 03:22:00,30.0,29.5,29.88,NW,316,5.8,5.8,98,0.00,-SN,,0.00,WeatherDisplay:10.37,2013-01-01 08:22:00,
2013-01-01 03:27:00,30.0,29.5,29.88,WSW,241,6.9,6.9,98,0.00,-SN,,0.00,WeatherDisplay:10.37,2013-01-01 08:27:00,
2013-01-01 03:32:00,30.0,29.5,29.88,SW,234,7.2,7.2,98,0.00,-SN,,0.00,WeatherDisplay:10.37,2013-01-01 08:32:00,
2013-01-01 03:37:00,30.0,29.5,29.88,WSW,254,9.2,9.2,98,0.00,OVC,,0.00,WeatherDisplay:10.37,2013-01-01 08:37:00,
2013-01-01 03:42:00,30.0,29.5,29.88,SW,235,5.8,5.8,98,0.00,OVC,,0.00,WeatherDisplay:10.37,2013-01-01 08:42:00,
2013-01-01 03:47:00,30.0,29.5,29.88,WNW,286,6.9,6.9,98,0.00,OVC,,0.00,WeatherDisplay:10.37,2013-01-01 08:47:00,
2013-01-01 03:52:00,30.0,29.5,29.88,West,267,5.8,5.8,98,0.00,OVC,,0.00,WeatherDisplay:10.37,2013-01-01 08:52:00,
2013-01-01 03:57:00,30.0,29.5,29.88,WNW,293,4.6,4.6,98,0.00,OVC,,0.00,WeatherDisplay:10.37,2013-01-01 08:57:00,
2013-01-01 04:02:00,30.0,29.5,29.88,WSW,237,5.8,5.8,98,0.00,OVC,,0.00,WeatherDisplay:10.37,2013-01-01 09:02:00,
2013-01-01 04:07:00,30.0,29.5,29.88,West,278,8.1,8.1,98,0.00,OVC,,0.00,WeatherDisplay:10.37,2013-01-01 09:07:00,
2013-01-01 04:12:00,30.0,29.5,29.88,SW,218,8.1,8.1,98,0.00,OVC,,0.00,WeatherDisplay:10.37,2013-01-01 09:12:00,
2013-01-01 04:17:00,30.0,29.5,29.88,WNW,298,8.7,8.7,98,0.00,OVC,,0.00,WeatherDisplay:10.37,2013-01-01 09:17:00,
2013-01-01 04:22:00,30.0,29.5,29.88,WNW,289,9.2,9.2,98,0.00,OVC,,0.00,WeatherDisplay:10.37,2013-01-01 09:22:00,
2013-01-01 04:27:00,30.0,29.5,29.88,West,271,8.1,8.1,98,0.00,OVC,,0.00,WeatherDisplay:10.37,2013-01-01 09:27:00,
2013-01-01 04:32:00,30.0,29.5,29.88,WSW,250,8.7,8.7,98,0.00,OVC,,0.00,WeatherDisplay:10.37,2013-01-01 09:32:00,
2013-01-01 04:37:00,30.0,29.5,29.88,West,262,3.6,3.6,98,0.00,OVC,,0.00,WeatherDisplay:10.37,2013-01-01 09:37:00,
2013-01-01 04:42:00,30.0,29.5,29.88,WNW,299,9.2,9.2,98,0.00,OVC,,0.00,WeatherDisplay:10.37,2013-01-01 09:42:00,
2013-01-01 04:47:00,30.0,29.5,29.88,West,259,8.1,8.1,98,0.00,OVC,,0.00,WeatherDisplay:10.37,2013-01-01 09:47:00,
2013-01-01 04:52:00,30.0,29.5,29.88,WNW,294,5.8,6.3,98,0.00,OVC,,0.00,WeatherDisplay:10.37,2013-01-01 09:52:00,
2013-01-01 04:57:00,30.2,29.7,29.88,WSW,258,8.0,8.0,98,0.00,OVC,,0.00,WeatherDisplay:10.37,2013-01-01 09:57:00,
2013-01-01 05:02:00,30.2,29.7,29.88,WNW,282,8.1,8.1,98,0.00,-SN,,0.00,WeatherDisplay:10.37,2013-01-01 10:02:00,
2013-01-01 05:07:00,30.2,29.7,29.88,NW,309,9.2,9.2,98,0.00,-SN,,0.00,WeatherDisplay:10.37,2013-01-01 10:07:00,
2013-01-01 05:12:00,30.2,29.7,29.88,West,261,11.5,11.5,98,0.00,-SN,,0.00,WeatherDisplay:10.37,2013-01-01 10:12:00,
2013-01-01 05:17:00,30.2,29.7,29.88,WNW,289,8.1,8.1,98,0.00,-SN,,0.00,WeatherDisplay:10.37,2013-01-01 10:17:00,
2013-01-01 05:22:00,30.2,29.7,29.88,WNW,301,11.5,11.5,98,0.00,-SN,,0.00,WeatherDisplay:10.37,2013-01-01 10:22:00,
2013-01-01 05:27:00,30.2,29.7,29.88,SSW,211,8.1,8.1,98,0.00,-SN,,0.00,WeatherDisplay:10.37,2013-01-01 10:27:00,
2013-01-01 05:32:00,30.2,29.7,29.88,SW,227,8.1,8.1,98,0.00,-SN,,0.00,WeatherDisplay:10.37,2013-01-01 10:32:00,
2013-01-01 05:37:00,30.2,29.7,29.88,West,271,9.2,9.2,98,0.00,-SN,,0.00,WeatherDisplay:10.37,2013-01-01 10:37:00,
2013-01-01 05:42:00,30.4,29.9,29.88,WNW,289,8.1,8.1,98,0.00,-SN,,0.00,WeatherDisplay:10.37,2013-01-01 10:42:00,
2013-01-01 05:47:00,30.4,29.9,29.88,WNW,286,6.3,6.3,98,0.00,-SN,,0.00,WeatherDisplay:10.37,2013-01-01 10:47:00,
2013-01-01 05:52:00,30.4,29.9,29.88,West,270,10.4,10.4,98,0.00,-SN,,0.00,WeatherDisplay:10.37,2013-01-01 10:52:00,
2013-01-01 05:57:00,30.4,29.9,29.88,WNW,288,10.1,10.1,98,0.00,-SN,,0.00,WeatherDisplay:10.37,2013-01-01 10:57:00,
2013-01-01 06:02:00,30.4,29.9,29.88,West,267,10.4,10.4,98,0.00,-SN,,0.00,WeatherDisplay:10.37,2013-01-01 11:02:00,
2013-01-01 06:07:00,30.4,29.9,29.88,NW,307,9.2,9.2,98,0.00,-SN,,0.00,WeatherDisplay:10.37,2013-01-01 11:07:00,
2013-01-01 06:12:00,30.4,29.9,29.88,WNW,283,5.8,5.8,98,0.00,-SN,,0.00,WeatherDisplay:10.37,2013-01-01 11:12:00,
2013-01-01 06:18:00,30.4,29.9,29.88,West,264,5.8,5.8,98,0.00,-SN,,0.00,WeatherDisplay:10.37,2013-01-01 11:18:00,
2013-01-01 06:23:00,30.4,29.9,29.88,West,277,6.3,0.0,98,0.00,-SN,,0.00,WeatherDisplay:10.37,2013-01-01 11:23:00,
2013-01-01 06:28:00,30.4,29.9,29.88,West,277,6.3,6.3,98,0.00,-SN,,0.00,WeatherDisplay:10.37,2013-01-01 11:28:00,
2013-01-01 06:33:00,30.4,29.9,29.88,WNW,303,8.1,8.1,98,0.00,-SN,,0.00,WeatherDisplay:10.37,2013-01-01 11:33:00,
2013-01-01 06:38:00,30.4,29.9,29.88,WNW,302,9.2,9.2,98,0.00,-SN,,0.00,WeatherDisplay:10.37,2013-01-01 11:38:00,
2013-01-01 06:43:00,30.4,29.9,29.88,NW,310,12.7,12.7,98,0.00,-SN,,0.00,WeatherDisplay:10.37,2013-01-01 11:43:00,
2013-01-01 06:48:00,30.4,29.9,29.88,WSW,238,4.6,4.6,98,0.00,-SN,,0.00,WeatherDisplay:10.37,2013-01-01 11:48:00,
2013-01-01 06:53:00,30.4,29.9,29.88,WSW,257,5.4,5.4,98,0.00,-SN,,0.00,WeatherDisplay:10.37,2013-01-01 11:53:00,
2013-01-01 06:58:00,30.4,29.9,29.88,NNW,328,3.6,4.0,98,0.00,-SN,,0.00,WeatherDisplay:10.37,2013-01-01 11:58:00,
2013-01-01 07:03:00,30.4,29.9,29.88,West,276,11.5,11.5,98,0.00,-SN,,0.00,WeatherDisplay:10.37,2013-01-01 12:03:00,
2013-01-01 07:08:00,30.4,29.9,29.88,WNW,282,11.5,11.5,98,0.00,-SN,,0.00,WeatherDisplay:10.37,2013-01-01 12:08:00,
2013-01-01 07:13:00,30.2,29.7,29.88,WNW,297,5.8,5.8,98,0.00,-SN,,0.00,WeatherDisplay:10.37,2013-01-01 12:13:00,
2013-01-01 07:18:00,30.2,29.7,29.88,WNW,287,10.4,10.4,98,0.00,-SN,,0.00,WeatherDisplay:10.37,2013-01-01 12:18:00,
2013-01-01 07:23:00,30.2,29.7,29.88,NW,324,8.1,8.1,98,0.00,-SN,,0.00,WeatherDisplay:10.37,2013-01-01 12:23:00,
2013-01-01 07:28:00,30.2,29.7,29.88,WNW,285,9.2,9.2,98,0.00,-SN,,0.00,WeatherDisplay:10.37,2013-01-01 12:28:00,
2013-01-01 07:33:00,30.2,29.7,29.85,West,261,8.1,8.1,98,0.00,-SN,,0.00,WeatherDisplay:10.37,2013-01-01 12:33:00,
2013-01-01 07:38:00,30.2,29.7,29.85,NW,324,8.1,8.1,98,0.00,-SN,,0.00,WeatherDisplay:10.37,2013-01-01 12:38:00,
2013-01-01 07:43:00,30.2,29.7,29.85,WNW,288,11.5,11.5,98,0.00,-SN,,0.00,WeatherDisplay:10.37,2013-01-01 12:43:00,
2013-01-01 07:48:00,30.2,29.7,29.88,West,267,6.9,6.9,98,0.00,-SN,,0.00,WeatherDisplay:10.37,2013-01-01 12:48:00,
2013-01-01 07:53:00,30.2,29.7,29.88,WNW,289,11.5,11.5,98,0.00,-SN,,0.00,WeatherDisplay:10.37,2013-01-01 12:53:00,
2013-01-01 07:58:00,30.2,29.7,29.88,West,278,9.2,9.2,98,0.00,-SN,,0.00,WeatherDisplay:10.37,2013-01-01 12:58:00,
2013-01-01 08:03:00,30.2,29.7,29.88,West,281,9.2,9.2,98,0.00,OVC,,0.00,WeatherDisplay:10.37,2013-01-01 13:03:00,
2013-01-01 08:08:00,30.2,29.7,29.88,West,280,8.1,8.1,98,0.00,OVC,,0.00,WeatherDisplay:10.37,2013-01-01 13:08:00,
2013-01-01 08:13:00,30.2,29.7,29.88,West,278,6.9,6.9,98,0.00,OVC,,0.00,WeatherDisplay:10.37,2013-01-01 13:13:00,
2013-01-01 08:18:00,30.2,29.7,29.88,WNW,294,6.9,6.9,98,0.00,OVC,,0.00,WeatherDisplay:10.37,2013-01-01 13:18:00,
2013-01-01 08:23:00,30.2,29.7,29.88,WSW,245,8.1,8.1,98,0.00,OVC,,0.00,WeatherDisplay:10.37,2013-01-01 13:23:00,
2013-01-01 08:28:00,30.2,29.7,29.88,WNW,287,6.9,6.9,98,0.00,OVC,,0.00,WeatherDisplay:10.37,2013-01-01 13:28:00,
2013-01-01 08:33:00,30.2,29.7,29.88,WSW,254,5.8,5.8,98,0.00,OVC,,0.00,WeatherDisplay:10.37,2013-01-01 13:33:00,
2013-01-01 08:38:00,30.2,29.7,29.88,NNW,341,8.1,8.1,98,0.00,-SN,,0.00,WeatherDisplay:10.37,2013-01-01 13:38:00,
2013-01-01 08:43:00,30.2,29.7,29.88,West,265,8.1,8.1,98,0.00,-SN,,0.00,WeatherDisplay:10.37,2013-01-01 13:43:00,
2013-01-01 08:48:00,30.2,29.7,29.88,WNW,288,5.8,5.8,98,0.00,-SN,,0.00,WeatherDisplay:10.37,2013-01-01 13:48:00,
2013-01-01 08:53:00,30.2,29.7,29.88,NW,310,9.2,9.2,98,0.00,-SN,,0.00,WeatherDisplay:10.37,2013-01-01 13:53:00,
2013-01-01 08:58:00,30.2,29.7,29.88,NW,310,9.2,9.2,98,0.00,-SN,,0.00,WeatherDisplay:10.37,2013-01-01 13:58:00,
2013-01-01 09:03:00,30.2,29.7,29.88,NW,314,8.1,8.1,98,0.00,-SN,,0.00,WeatherDisplay:10.37,2013-01-01 14:03:00,
2013-01-01 09:08:00,30.2,29.7,29.88,WNW,289,12.7,12.7,98,0.00,-SN,,0.00,WeatherDisplay:10.37,2013-01-01 14:08:00,
2013-01-01 09:13:00,30.4,29.9,29.88,WNW,293,13.2,13.2,98,0.00,-SN,,0.00,WeatherDisplay:10.37,2013-01-01 14:13:00,
2013-01-01 09:18:00,30.4,29.9,29.88,West,262,8.1,8.1,98,0.00,-SN,,0.00,WeatherDisplay:10.37,2013-01-01 14:18:00,
2013-01-01 09:23:00,30.4,29.9,29.88,NW,306,8.1,8.1,98,0.00,OVC,,0.00,WeatherDisplay:10.37,2013-01-01 14:23:00,
2013-01-01 09:28:00,30.4,29.9,29.88,WNW,290,11.5,11.5,98,0.00,OVC,,0.00,WeatherDisplay:10.37,2013-01-01 14:28:00,
2013-01-01 09:33:00,30.4,29.9,29.88,NW,312,11.5,11.5,98,0.00,OVC,,0.00,WeatherDisplay:10.37,2013-01-01 14:33:00,
2013-01-01 09:38:00,30.4,29.9,29.88,WNW,289,9.2,9.2,98,0.00,OVC,,0.00,WeatherDisplay:10.37,2013-01-01 14:38:00,
2013-01-01 09:43:00,30.6,30.1,29.88,WNW,288,10.4,10.4,98,0.00,OVC,,0.00,WeatherDisplay:10.37,2013-01-01 14:43:00,
2013-01-01 09:48:00,30.6,30.1,29.88,West,261,8.1,8.1,98,0.00,OVC,,0.00,WeatherDisplay:10.37,2013-01-01 14:48:00,
2013-01-01 09:53:00,30.6,30.1,29.88,WNW,282,12.7,12.7,98,0.00,OVC,,0.00,WeatherDisplay:10.37,2013-01-01 14:53:00,
2013-01-01 09:58:00,30.7,30.2,29.88,WNW,292,10.4,10.4,98,0.00,OVC,,0.00,WeatherDisplay:10.37,2013-01-01 14:58:00,
2013-01-01 10:03:00,30.7,30.2,29.88,NW,305,8.1,8.1,98,0.00,OVC,,0.00,WeatherDisplay:10.37,2013-01-01 15:03:00,
2013-01-01 10:08:00,30.7,30.2,29.88,NW,310,11.5,11.5,98,0.00,OVC,,0.00,WeatherDisplay:10.37,2013-01-01 15:08:00,
2013-01-01 10:13:00,30.7,30.2,29.88,WNW,290,10.4,10.4,98,0.00,OVC,,0.00,WeatherDisplay:10.37,2013-01-01 15:13:00,
2013-01-01 10:18:00,30.7,30.2,29.88,NW,320,14.5,14.5,98,0.00,OVC,,0.00,WeatherDisplay:10.37,2013-01-01 15:18:00,
2013-01-01 10:23:00,30.7,30.2,29.88,NW,315,13.8,13.8,98,0.00,OVC,,0.00,WeatherDisplay:10.37,2013-01-01 15:23:00,
2013-01-01 10:28:00,30.7,30.2,29.88,WNW,298,8.1,8.1,98,0.00,OVC,,0.00,WeatherDisplay:10.37,2013-01-01 15:28:00,
2013-01-01 10:33:00,30.7,30.2,29.88,West,270,10.4,10.4,98,0.00,OVC,,0.00,WeatherDisplay:10.37,2013-01-01 15:33:00,
2013-01-01 10:38:00,30.7,30.2,29.88,NW,317,15.0,15.0,98,0.00,OVC,,0.00,WeatherDisplay:10.37,2013-01-01 15:38:00,
2013-01-01 10:43:00,30.7,30.2,29.88,NW,320,8.1,8.1,98,0.00,OVC,,0.00,WeatherDisplay:10.37,2013-01-01 15:43:00,
2013-01-01 10:48:00,30.7,30.2,29.88,West,281,10.4,10.4,98,0.00,OVC,,0.00,WeatherDisplay:10.37,2013-01-01 15:48:00,
2013-01-01 10:53:00,30.7,30.2,29.88,West,272,10.4,10.4,98,0.00,OVC,,0.00,WeatherDisplay:10.37,2013-01-01 15:53:00,
2013-01-01 10:58:00,30.7,30.2,29.88,WNW,296,9.6,9.6,98,0.00,OVC,,0.00,WeatherDisplay:10.37,2013-01-01 15:58:00,
2013-01-01 11:03:00,30.6,30.1,29.88,WNW,292,9.2,9.2,98,0.00,OVC,,0.00,WeatherDisplay:10.37,2013-01-01 16:03:00,
2013-01-01 11:08:00,30.6,30.1,29.88,WNW,284,10.4,10.4,98,0.00,OVC,,0.00,WeatherDisplay:10.37,2013-01-01 16:08:00,
2013-01-01 11:13:00,30.6,30.1,29.88,WSW,255,11.5,11.5,98,0.00,OVC,,0.00,WeatherDisplay:10.37,2013-01-01 16:13:00,
2013-01-01 11:18:00,30.6,30.1,29.88,NW,311,8.3,8.3,98,0.00,OVC,,0.00,WeatherDisplay:10.37,2013-01-01 16:18:00,
2013-01-01 11:23:00,30.4,29.9,29.88,WNW,301,8.1,8.1,98,0.00,OVC,,0.00,WeatherDisplay:10.37,2013-01-01 16:23:00,
2013-01-01 11:28:00,30.4,29.9,29.88,NW,304,8.1,8.1,98,0.00,OVC,,0.00,WeatherDisplay:10.37,2013-01-01 16:28:00,
2013-01-01 11:33:00,30.4,29.9,29.88,NW,322,8.1,8.1,98,0.00,OVC,,0.00,WeatherDisplay:10.37,2013-01-01 16:33:00,
2013-01-01 11:38:00,30.4,29.9,29.88,NNW,335,8.7,8.7,98,0.00,OVC,,0.00,WeatherDisplay:10.37,2013-01-01 16:38:00,
2013-01-01 11:43:00,30.4,29.9,29.88,NW,317,13.8,13.8,98,0.00,OVC,,0.00,WeatherDisplay:10.37,2013-01-01 16:43:00,
2013-01-01 11:48:00,30.4,29.9,29.88,WNW,303,8.1,8.1,98,0.00,OVC,,0.00,WeatherDisplay:10.37,2013-01-01 16:48:00,
2013-01-01 11:53:00,30.4,29.9,29.88,West,259,12.7,12.7,98,0.00,OVC,,0.00,WeatherDisplay:10.37,2013-01-01 16:53:00,
2013-01-01 11:58:00,30.4,29.9,29.88,WNW,303,12.7,12.7,98,0.00,OVC,,0.00,WeatherDisplay:10.37,2013-01-01 16:58:00,
2013-01-01 12:03:00,30.4,29.9,29.88,WNW,287,11.5,11.5,98,0.00,OVC,,0.00,WeatherDisplay:10.37,2013-01-01 17:03:00,
2013-01-01 12:08:00,30.2,29.7,29.88,NW,305,8.1,8.1,98,0.00,OVC,,0.00,WeatherDisplay:10.37,2013-01-01 17:08:00,
2013-01-01 12:13:00,30.2,29.7,29.85,West,277,8.1,8.1,98,0.00,OVC,,0.00,WeatherDisplay:10.37,2013-01-01 17:13:00,
2013-01-01 12:18:00,30.2,29.7,29.85,NW,322,10.4,10.4,98,0.00,OVC,,0.00,WeatherDisplay:10.37,2013-01-01 17:18:00,
2013-01-01 12:23:00,30.2,29.7,29.85,NW,307,12.7,12.7,98,0.00,OVC,,0.00,WeatherDisplay:10.37,2013-01-01 17:23:00,
2013-01-01 12:28:00,30.0,29.5,29.83,NW,304,11.5,11.5,98,0.00,OVC,,0.00,WeatherDisplay:10.37,2013-01-01 17:28:00,
2013-01-01 12:33:00,30.0,29.5,29.83,NW,315,11.5,11.5,98,0.00,OVC,,0.00,WeatherDisplay:10.37,2013-01-01 17:33:00,
2013-01-01 12:38:00,30.0,29.5,29.83,WNW,303,8.1,8.1,98,0.00,OVC,,0.00,WeatherDisplay:10.37,2013-01-01 17:38:00,
2013-01-01 12:43:00,30.0,29.5,29.83,NNW,339,13.8,13.8,98,0.00,OVC,,0.00,WeatherDisplay:10.37,2013-01-01 17:43:00,
2013-01-01 12:48:00,29.8,29.3,29.83,NNW,345,11.5,11.5,98,0.00,OVC,,0.00,WeatherDisplay:10.37,2013-01-01 17:48:00,
2013-01-01 12:53:00,29.8,29.3,29.83,WNW,302,15.0,15.0,98,0.00,OVC,,0.00,WeatherDisplay:10.37,2013-01-01 17:53:00,
2013-01-01 12:58:00,29.8,29.3,29.85,West,265,12.7,12.7,98,0.00,OVC,,0.00,WeatherDisplay:10.37,2013-01-01 17:58:00,
2013-01-01 13:03:00,29.8,29.3,29.85,NW,322,15.0,15.0,98,0.00,OVC,,0.00,WeatherDisplay:10.37,2013-01-01 18:03:00,
2013-01-01 13:08:00,29.8,29.3,29.85,West,278,15.4,15.4,98,0.00,OVC,,0.00,WeatherDisplay:10.37,2013-01-01 18:08:00,
2013-01-01 13:13:00,29.8,29.3,29.85,WSW,244,14.5,14.5,98,0.00,OVC,,0.00,WeatherDisplay:10.37,2013-01-01 18:13:00,
2013-01-01 13:18:00,29.8,29.3,29.85,WNW,291,9.2,9.2,98,0.00,OVC,,0.00,WeatherDisplay:10.37,2013-01-01 18:18:00,
2013-01-01 13:23:00,29.8,29.3,29.85,NW,324,9.2,9.2,98,0.00,OVC,,0.00,WeatherDisplay:10.37,2013-01-01 18:23:00,
2013-01-01 13:28:00,29.8,29.3,29.85,NW,314,10.4,10.4,98,0.00,OVC,,0.00,WeatherDisplay:10.37,2013-01-01 18:28:00,
2013-01-01 13:33:00,29.8,29.3,29.85,NW,321,7.6,7.6,98,0.00,OVC,,0.00,WeatherDisplay:10.37,2013-01-01 18:33:00,
2013-01-01 13:38:00,29.7,29.2,29.85,WNW,301,9.2,9.2,98,0.00,OVC,,0.00,WeatherDisplay:10.37,2013-01-01 18:38:00,
2013-01-01 13:43:00,29.7,29.2,29.85,WNW,289,10.4,10.4,98,0.00,OVC,,0.00,WeatherDisplay:10.37,2013-01-01 18:43:00,
2013-01-01 13:48:00,29.7,29.2,29.85,WNW,298,11.5,11.5,98,0.00,OVC,,0.00,WeatherDisplay:10.37,2013-01-01 18:48:00,
2013-01-01 13:53:00,29.7,29.2,29.85,NW,313,8.1,8.1,98,0.00,OVC,,0.00,WeatherDisplay:10.37,2013-01-01 18:53:00,
2013-01-01 13:58:00,29.5,29.0,29.83,NW,322,12.7,12.7,98,0.00,OVC,,0.00,WeatherDisplay:10.37,2013-01-01 18:58:00,
2013-01-01 14:03:00,29.5,29.0,29.83,West,279,9.2,9.2,98,0.00,OVC,,0.00,WeatherDisplay:10.37,2013-01-01 19:03:00,
2013-01-01 14:08:00,29.5,29.0,29.83,NNW,327,10.4,10.4,98,0.00,OVC,,0.00,WeatherDisplay:10.37,2013-01-01 19:08:00,
2013-01-01 14:13:00,29.3,28.8,29.83,NW,308,9.2,9.2,98,0.00,OVC,,0.00,WeatherDisplay:10.37,2013-01-01 19:13:00,
2013-01-01 14:18:00,29.1,28.6,29.83,North,0,10.4,10.4,98,0.00,OVC,,0.00,WeatherDisplay:10.37,2013-01-01 19:18:00,
2013-01-01 14:23:00,28.9,28.4,29.83,NNW,329,12.7,12.7,98,0.00,OVC,,0.00,WeatherDisplay:10.37,2013-01-01 19:23:00,
2013-01-01 14:28:00,28.8,28.3,29.83,NW,321,12.7,12.7,98,0.00,OVC,,0.00,WeatherDisplay:10.37,2013-01-01 19:28:00,
2013-01-01 14:33:00,28.6,28.1,29.83,North,0,4.5,4.5,98,0.00,OVC,,0.00,WeatherDisplay:10.37,2013-01-01 19:33:00,
2013-01-01 14:38:00,28.6,28.1,29.83,NW,307,9.2,9.2,98,0.00,OVC,,0.00,WeatherDisplay:10.37,2013-01-01 19:38:00,
2013-01-01 14:43:00,28.6,28.1,29.85,NW,307,11.5,11.5,98,0.00,OVC,,0.00,WeatherDisplay:10.37,2013-01-01 19:43:00,
2013-01-01 14:48:00,28.6,28.1,29.85,North,353,11.4,11.4,98,0.00,OVC,,0.00,WeatherDisplay:10.37,2013-01-01 19:48:00,
2013-01-01 14:53:00,28.4,27.9,29.85,NNW,332,12.7,12.7,98,0.00,OVC,,0.00,WeatherDisplay:10.37,2013-01-01 19:53:00,
2013-01-01 14:58:00,28.4,27.9,29.85,NW,308,10.9,10.9,98,0.00,OVC,,0.00,WeatherDisplay:10.37,2013-01-01 19:58:00,
2013-01-01 15:03:00,28.2,27.7,29.85,WNW,288,8.3,8.3,98,0.00,OVC,,0.00,WeatherDisplay:10.37,2013-01-01 20:03:00,
2013-01-01 15:08:00,28.2,27.7,29.85,NNW,337,10.4,10.4,98,0.00,OVC,,0.00,WeatherDisplay:10.37,2013-01-01 20:08:00,
2013-01-01 15:13:00,28.0,27.5,29.83,WNW,299,8.1,8.1,98,0.00,OVC,,0.00,WeatherDisplay:10.37,2013-01-01 20:13:00,
2013-01-01 15:18:00,28.0,27.5,29.83,NNW,327,12.7,12.7,98,0.00,OVC,,0.00,WeatherDisplay:10.37,2013-01-01 20:18:00,
2013-01-01 15:23:00,27.9,27.4,29.83,NW,315,16.1,16.1,98,0.00,-SN,,0.00,WeatherDisplay:10.37,2013-01-01 20:23:00,
2013-01-01 15:28:00,27.9,27.4,29.85,NNW,332,17.3,17.3,98,0.00,-SN,,0.00,WeatherDisplay:10.37,2013-01-01 20:28:00,
2013-01-01 15:33:00,27.9,27.4,29.85,NW,314,12.7,12.7,98,0.00,-SN,,0.00,WeatherDisplay:10.37,2013-01-01 20:33:00,
2013-01-01 15:38:00,27.7,27.2,29.85,NNW,330,8.1,8.1,98,0.00,-SN,,0.00,WeatherDisplay:10.37,2013-01-01 20:38:00,
2013-01-01 15:43:00,27.7,27.2,29.85,NW,323,9.6,9.6,98,0.00,-SN,,0.00,WeatherDisplay:10.37,2013-01-01 20:43:00,
2013-01-01 15:48:00,27.7,27.2,29.85,NW,319,15.0,15.0,98,0.00,-SN,,0.00,WeatherDisplay:10.37,2013-01-01 20:48:00,
2013-01-01 15:53:00,27.5,27.0,29.85,NNW,340,8.1,8.1,98,0.00,-SN,,0.00,WeatherDisplay:10.37,2013-01-01 20:53:00,
2013-01-01 15:58:00,27.5,27.0,29.85,NNW,335,11.5,11.5,98,0.00,-SN,,0.00,WeatherDisplay:10.37,2013-01-01 20:58:00,
2013-01-01 16:03:00,27.5,27.0,29.85,NNW,331,13.2,13.2,98,0.00,-SN,,0.00,WeatherDisplay:10.37,2013-01-01 21:03:00,
2013-01-01 16:08:00,27.5,27.0,29.85,NNW,335,14.5,14.5,98,0.00,-SN,,0.00,WeatherDisplay:10.37,2013-01-01 21:08:00,
2013-01-01 16:13:00,27.5,27.0,29.85,North,357,8.1,8.3,98,0.00,-SN,,0.00,WeatherDisplay:10.37,2013-01-01 21:13:00,
2013-01-01 16:18:00,27.5,27.0,29.85,NNW,327,12.7,12.7,98,0.00,-SN,,0.00,WeatherDisplay:10.37,2013-01-01 21:18:00,
2013-01-01 16:23:00,27.5,27.0,29.85,NNW,336,9.2,9.2,98,0.00,-SN,,0.00,WeatherDisplay:10.37,2013-01-01 21:23:00,
2013-01-01 16:28:00,27.5,27.0,29.88,NW,311,8.1,8.1,98,0.00,-SN,,0.00,WeatherDisplay:10.37,2013-01-01 21:28:00,
2013-01-01 16:33:00,27.5,27.0,29.88,WNW,294,9.2,9.2,98,0.00,-SN,,0.00,WeatherDisplay:10.37,2013-01-01 21:33:00,
2013-01-01 16:38:00,27.5,27.0,29.88,NW,323,8.1,8.1,98,0.00,-SN,,0.00,WeatherDisplay:10.37,2013-01-01 21:38:00,
2013-01-01 16:43:00,27.5,27.0,29.88,NW,322,12.7,12.7,98,0.00,-SN,,0.00,WeatherDisplay:10.37,2013-01-01 21:43:00,
2013-01-01 16:48:00,27.3,26.8,29.88,NNW,342,5.8,5.8,98,0.00,-SN,,0.00,WeatherDisplay:10.37,2013-01-01 21:48:00,
2013-01-01 16:53:00,27.3,26.8,29.88,NNW,328,12.7,12.7,98,0.00,-SN,,0.00,WeatherDisplay:10.37,2013-01-01 21:53:00,
2013-01-01 16:58:00,27.1,26.7,29.88,NW,305,12.7,12.7,98,0.00,-SN,,0.00,WeatherDisplay:10.37,2013-01-01 21:58:00,
2013-01-01 17:03:00,27.1,26.4,29.88,NW,324,11.5,11.5,97,0.00,-SN,,0.00,WeatherDisplay:10.37,2013-01-01 22:03:00,
2013-01-01 17:08:00,27.1,26.4,29.88,NW,326,8.1,8.1,97,0.00,-SN,,0.00,WeatherDisplay:10.37,2013-01-01 22:08:00,
2013-01-01 17:13:00,27.1,26.2,29.88,NW,310,10.9,10.9,96,0.00,-SN,,0.00,WeatherDisplay:10.37,2013-01-01 22:13:00,
2013-01-01 17:18:00,27.0,26.0,29.88,NNW,344,8.1,8.1,96,0.00,-SN,,0.00,WeatherDisplay:10.37,2013-01-01 22:18:00,
2013-01-01 17:23:00,27.0,26.0,29.88,NNW,330,12.7,12.7,96,0.00,BKN,,0.00,WeatherDisplay:10.37,2013-01-01 22:23:00,
2013-01-01 17:28:00,26.8,25.5,29.88,WNW,295,8.1,8.1,95,0.00,BKN,,0.00,WeatherDisplay:10.37,2013-01-01 22:28:00,
2013-01-01 17:33:00,26.8,25.3,29.88,NW,316,5.4,5.4,94,0.00,BKN,,0.00,WeatherDisplay:10.37,2013-01-01 22:33:00,
2013-01-01 17:38:00,26.6,25.4,29.88,WNW,301,11.5,11.5,95,0.00,BKN,,0.00,WeatherDisplay:10.37,2013-01-01 22:38:00,
2013-01-01 17:43:00,26.4,24.7,29.88,NW,313,13.2,13.2,93,0.00,BKN,,0.00,WeatherDisplay:10.37,2013-01-01 22:43:00,
2013-01-01 17:48:00,26.2,24.2,29.88,NNW,343,11.5,11.5,92,0.00,BKN,,0.00,WeatherDisplay:10.37,2013-01-01 22:48:00,
2013-01-01 17:53:00,26.1,23.5,29.88,NW,319,15.0,15.0,90,0.00,BKN,,0.00,WeatherDisplay:10.37,2013-01-01 22:53:00,
2013-01-01 17:58:00,25.9,23.1,29.88,NW,326,13.2,13.2,89,0.00,BKN,,0.00,WeatherDisplay:10.37,2013-01-01 22:58:00,
2013-01-01 18:03:00,25.7,22.6,29.88,NW,314,11.5,11.5,88,0.00,BKN,,0.00,WeatherDisplay:10.37,2013-01-01 23:03:00,
2013-01-01 18:08:00,25.5,22.5,29.88,NW,306,15.0,15.0,88,0.00,BKN,,0.00,WeatherDisplay:10.37,2013-01-01 23:08:00,
2013-01-01 18:13:00,25.5,22.2,29.88,NW,315,15.0,15.0,87,0.00,BKN,,0.00,WeatherDisplay:10.37,2013-01-01 23:13:00,
2013-01-01 18:18:00,25.3,22.0,29.88,NW,322,12.7,12.7,87,0.00,BKN,,0.00,WeatherDisplay:10.37,2013-01-01 23:18:00,
2013-01-01 18:23:00,25.3,22.3,29.88,NNW,329,12.7,12.7,88,0.00,BKN,,0.00,WeatherDisplay:10.37,2013-01-01 23:23:00,
2013-01-01 18:28:00,25.2,22.1,29.88,WNW,300,12.3,12.3,88,0.00,BKN,,0.00,WeatherDisplay:10.37,2013-01-01 23:28:00,
2013-01-01 18:33:00,25.2,22.1,29.88,NW,318,11.5,11.5,88,0.00,BKN,,0.00,WeatherDisplay:10.37,2013-01-01 23:33:00,
2013-01-01 18:38:00,25.0,21.9,29.88,NNW,344,15.0,15.0,88,0.00,BKN,,0.00,WeatherDisplay:10.37,2013-01-01 23:38:00,
2013-01-01 18:43:00,24.6,21.3,29.88,NNW,348,8.1,8.1,87,0.00,BKN,,0.00,WeatherDisplay:10.37,2013-01-01 23:43:00,
2013-01-01 18:49:00,24.4,20.6,29.88,North,2,12.7,12.7,85,0.00,BKN,,0.00,WeatherDisplay:10.37,2013-01-01 23:49:00,
2013-01-01 18:53:00,24.3,20.1,29.88,NW,305,11.5,11.5,84,0.00,BKN,,0.00,WeatherDisplay:10.37,2013-01-01 23:53:00,
2013-01-01 18:58:00,24.1,19.7,29.88,North,353,10.4,10.4,83,0.00,BKN,,0.00,WeatherDisplay:10.37,2013-01-01 23:58:00,
2013-01-01 19:04:00,23.9,19.5,29.88,NNW,332,10.4,10.4,83,0.00,BKN,,0.00,WeatherDisplay:10.37,2013-01-02 00:04:00,
2013-01-01 19:09:00,23.9,18.9,29.88,NNW,331,9.2,9.2,81,0.00,BKN,,0.00,WeatherDisplay:10.37,2013-01-02 00:09:00,
2013-01-01 19:14:00,23.7,18.5,29.88,North,353,12.7,12.7,80,0.00,BKN,,0.00,WeatherDisplay:10.37,2013-01-02 00:14:00,
2013-01-01 19:19:00,23.5,18.0,29.88,NW,318,8.1,8.1,79,0.00,BKN,,0.00,WeatherDisplay:10.37,2013-01-02 00:19:00,
2013-01-01 19:24:00,23.5,18.3,29.88,NW,322,8.1,8.1,80,0.00,BKN,,0.00,WeatherDisplay:10.37,2013-01-02 00:24:00,
2013-01-01 19:29:00,23.5,18.3,29.91,NNW,328,8.1,8.1,80,0.00,BKN,,0.00,WeatherDisplay:10.37,2013-01-02 00:29:00,
2013-01-01 19:34:00,23.5,18.3,29.91,NW,309,8.1,8.1,80,0.00,BKN,,0.00,WeatherDisplay:10.37,2013-01-02 00:34:00,
2013-01-01 19:39:00,23.4,18.1,29.91,NW,323,6.3,6.3,80,0.00,OVC,,0.00,WeatherDisplay:10.37,2013-01-02 00:39:00,
2013-01-01 19:44:00,23.4,18.1,29.91,WNW,287,8.1,8.1,80,0.00,OVC,,0.00,WeatherDisplay:10.37,2013-01-02 00:44:00,
2013-01-01 19:49:00,23.2,17.9,29.91,NNW,328,8.1,8.1,80,0.00,OVC,,0.00,WeatherDisplay:10.37,2013-01-02 00:49:00,
2013-01-01 19:54:00,23.2,17.9,29.91,NNW,331,5.8,5.8,80,0.00,OVC,,0.00,WeatherDisplay:10.37,2013-01-02 00:54:00,
2013-01-01 19:59:00,23.0,17.2,29.91,WNW,294,8.1,8.1,78,0.00,OVC,,0.00,WeatherDisplay:10.37,2013-01-02 00:59:00,
2013-01-01 20:04:00,23.0,17.5,29.91,NW,306,5.8,5.8,79,0.00,OVC,,0.00,WeatherDisplay:10.37,2013-01-02 01:04:00,
2013-01-01 20:09:00,22.8,17.3,29.91,NNW,335,8.1,8.1,79,0.00,OVC,,0.00,WeatherDisplay:10.37,2013-01-02 01:09:00,
2013-01-01 20:14:00,22.8,17.0,29.91,NW,304,8.1,8.1,78,0.00,OVC,,0.00,WeatherDisplay:10.37,2013-01-02 01:14:00,
2013-01-01 20:19:00,22.6,16.8,29.91,NW,317,5.8,5.8,78,0.00,OVC,,0.00,WeatherDisplay:10.37,2013-01-02 01:19:00,
2013-01-01 20:24:00,22.6,16.8,29.91,NNW,343,8.1,8.1,78,0.00,OVC,,0.00,WeatherDisplay:10.37,2013-01-02 01:24:00,
2013-01-01 20:29:00,22.5,16.3,29.91,NW,324,9.2,9.2,77,0.00,OVC,,0.00,WeatherDisplay:10.37,2013-01-02 01:29:00,
2013-01-01 20:34:00,22.5,16.3,29.91,NW,321,8.1,8.1,77,0.00,OVC,,0.00,WeatherDisplay:10.37,2013-01-02 01:34:00,
2013-01-01 20:39:00,22.3,16.2,29.91,NNW,330,8.1,8.1,77,0.00,OVC,,0.00,WeatherDisplay:10.37,2013-01-02 01:39:00,
2013-01-01 20:44:00,22.1,16.0,29.88,NNW,339,5.8,5.8,77,0.00,OVC,,0.00,WeatherDisplay:10.37,2013-01-02 01:44:00,
2013-01-01 20:49:00,22.1,16.0,29.88,NNW,340,8.1,8.1,77,0.00,OVC,,0.00,WeatherDisplay:10.37,2013-01-02 01:49:00,
2013-01-01 20:54:00,21.9,15.8,29.88,NNW,332,9.2,9.2,77,0.00,OVC,,0.00,WeatherDisplay:10.37,2013-01-02 01:54:00,
2013-01-01 20:59:00,21.9,15.8,29.91,NW,321,8.1,8.1,77,0.00,OVC,,0.00,WeatherDisplay:10.37,2013-01-02 01:59:00,
2013-01-01 21:04:00,21.9,15.8,29.91,NNW,342,9.2,9.2,77,0.00,OVC,,0.00,WeatherDisplay:10.37,2013-01-02 02:04:00,
2013-01-01 21:09:00,21.7,15.3,29.91,NNW,343,8.3,8.3,76,0.00,OVC,,0.00,WeatherDisplay:10.37,2013-01-02 02:09:00,
2013-01-01 21:14:00,21.7,15.3,29.91,NW,317,5.8,5.8,76,0.00,OVC,,0.00,WeatherDisplay:10.37,2013-01-02 02:14:00,
2013-01-01 21:19:00,21.7,15.3,29.91,NW,324,4.9,5.4,76,0.00,OVC,,0.00,WeatherDisplay:10.37,2013-01-02 02:19:00,
2013-01-01 21:24:00,21.6,15.2,29.91,NNW,328,5.4,5.4,76,0.00,OVC,,0.00,WeatherDisplay:10.37,2013-01-02 02:24:00,
2013-01-01 21:29:00,21.6,15.2,29.91,NNW,334,8.1,8.1,76,0.00,OVC,,0.00,WeatherDisplay:10.37,2013-01-02 02:29:00,
2013-01-01 21:34:00,21.6,15.2,29.91,NNW,334,3.5,0.0,76,0.00,OVC,,0.00,WeatherDisplay:10.37,2013-01-02 02:34:00,
2013-01-01 21:39:00,21.4,15.0,29.91,NNW,341,5.8,5.8,76,0.00,OVC,,0.00,WeatherDisplay:10.37,2013-01-02 02:39:00,
2013-01-01 21:44:00,21.4,15.0,29.91,NW,319,3.5,4.0,76,0.00,OVC,,0.00,WeatherDisplay:10.37,2013-01-02 02:44:00,
2013-01-01 21:49:00,21.2,14.8,29.91,NNW,329,6.3,6.3,76,0.00,OVC,,0.00,WeatherDisplay:10.37,2013-01-02 02:49:00,
2013-01-01 21:54:00,21.2,15.1,29.91,WNW,302,6.3,6.3,77,0.00,OVC,,0.00,WeatherDisplay:10.37,2013-01-02 02:54:00,
2013-01-01 21:59:00,21.2,15.1,29.91,NW,320,5.8,5.8,77,0.00,OVC,,0.00,WeatherDisplay:10.37,2013-01-02 02:59:00,
2013-01-01 22:04:00,21.2,15.1,29.91,WNW,289,5.8,5.8,77,0.00,OVC,,0.00,WeatherDisplay:10.37,2013-01-02 03:04:00,
2013-01-01 22:09:00,21.2,15.1,29.91,NW,304,4.0,4.0,77,0.00,OVC,,0.00,WeatherDisplay:10.37,2013-01-02 03:09:00,
2013-01-01 22:14:00,21.0,14.9,29.91,North,4,8.3,8.3,77,0.00,OVC,,0.00,WeatherDisplay:10.37,2013-01-02 03:14:00,
2013-01-01 22:19:00,20.8,14.5,29.91,NNW,340,8.1,8.1,76,0.00,OVC,,0.00,WeatherDisplay:10.37,2013-01-02 03:19:00,
2013-01-01 22:24:00,20.8,14.5,29.91,NNW,341,5.8,5.8,76,0.00,OVC,,0.00,WeatherDisplay:10.37,2013-01-02 03:24:00,
2013-01-01 22:29:00,20.7,14.6,29.91,NNW,344,5.8,5.8,77,0.00,OVC,,0.00,WeatherDisplay:10.37,2013-01-02 03:29:00,
2013-01-01 22:34:00,20.7,14.6,29.91,NW,314,5.8,5.8,77,0.00,OVC,,0.00,WeatherDisplay:10.37,2013-01-02 03:34:00,
2013-01-01 22:39:00,20.7,14.6,29.91,North,0,8.1,8.1,77,0.00,OVC,,0.00,WeatherDisplay:10.37,2013-01-02 03:39:00,
2013-01-01 22:44:00,20.5,14.4,29.91,WNW,300,4.6,4.6,77,0.00,OVC,,0.00,WeatherDisplay:10.37,2013-01-02 03:44:00,
2013-01-01 22:49:00,20.5,14.7,29.91,NW,313,5.8,5.8,78,0.00,OVC,,0.00,WeatherDisplay:10.37,2013-01-02 03:49:00,
2013-01-01 22:54:00,20.5,14.7,29.91,NW,313,4.6,4.6,78,0.00,OVC,,0.00,WeatherDisplay:10.37,2013-01-02 03:54:00,
2013-01-01 22:59:00,20.5,14.7,29.91,NW,311,5.8,5.8,78,0.00,OVC,,0.00,WeatherDisplay:10.37,2013-01-02 03:59:00,
2013-01-01 23:04:00,20.3,14.5,29.91,NW,311,5.8,5.8,78,0.00,OVC,,0.00,WeatherDisplay:10.37,2013-01-02 04:04:00,
2013-01-01 23:09:00,20.3,14.5,29.91,NW,319,5.8,5.8,78,0.00,OVC,,0.00,WeatherDisplay:10.37,2013-01-02 04:09:00,
2013-01-01 23:14:00,20.3,14.5,29.91,NW,316,5.8,5.8,78,0.00,OVC,,0.00,WeatherDisplay:10.37,2013-01-02 04:14:00,
2013-01-01 23:19:00,20.3,14.5,29.91,NW,317,8.7,8.7,78,0.00,OVC,,0.00,WeatherDisplay:10.37,2013-01-02 04:19:00,
2013-01-01 23:24:00,20.3,14.5,29.91,WNW,286,8.1,8.1,78,0.00,OVC,,0.00,WeatherDisplay:10.37,2013-01-02 04:24:00,
2013-01-01 23:29:00,20.3,14.5,29.91,NNW,345,5.8,5.8,78,0.00,OVC,,0.00,WeatherDisplay:10.37,2013-01-02 04:29:00,
2013-01-01 23:34:00,20.1,14.7,29.91,NNW,332,5.8,5.8,79,0.00,OVC,,0.00,WeatherDisplay:10.37,2013-01-02 04:34:00,
2013-01-01 23:39:00,20.1,14.7,29.91,NNW,329,8.1,8.1,79,0.00,OVC,,0.00,WeatherDisplay:10.37,2013-01-02 04:39:00,
2013-01-01 23:44:00,20.1,14.7,29.91,NNW,327,5.8,5.8,79,0.00,OVC,,0.00,WeatherDisplay:10.37,2013-01-02 04:44:00,
2013-01-01 23:49:00,19.9,14.5,29.91,NW,319,8.1,8.1,79,0.00,OVC,,0.00,WeatherDisplay:10.37,2013-01-02 04:49:00,
2013-01-01 23:54:00,19.9,14.5,29.91,NNW,330,10.4,10.4,79,0.00,OVC,,0.00,WeatherDisplay:10.37,2013-01-02 04:54:00,
2013-01-01 23:59:00,19.8,14.3,29.91,NNW,332,8.1,8.1,79,0.00,OVC,,0.00,WeatherDisplay:10.37,2013-01-02 04:59:00,